Data for 01/14/2007

Time Sea-Level Adjusted Pressure Absolute Pressure Temperature Relative Humidity Dew Point   
(mb) (inHg) (mb) (inHg) (C) (F) (%) (C) (F)
00:05 1021 30.15 850 25.1 -19.4 -2.8 78 -22.4 -8.2
00:10 1021 30.15 850 25.1 -18.9 -2 74 -22.4 -8.4
00:15 1021 30.15 850 25.1 -18.5 -1.3 72 -22.5 -8.4
00:20 1021 30.15 850 25.1 -18.8 -1.8 72 -22.7 -8.9
00:25 1021 30.15 850 25.1 -19.5 -3.1 75 -22.9 -9.3
00:30 1021 30.15 850 25.1 -19.7 -3.5 78 -22.6 -8.7
00:35 1021 30.15 850 25.1 -19.4 -2.9 76 -22.6 -8.7
00:40 1021 30.15 850 25.1 -19.6 -3.3 77 -22.7 -8.8
00:45 1021 30.15 850 25.1 -19.7 -3.5 80 -22.4 -8.3
00:50 1021 30.15 850 25.1 -19.7 -3.4 81 -22.2 -8
00:55 1021 30.15 850 25.1 -19.4 -2.8 76 -22.5 -8.5
01:00 1021 30.15 850 25.1 -19.3 -2.7 76 -22.5 -8.5
01:05 1021 30.15 850 25.1 -19.3 -2.7 76 -22.5 -8.6
01:10 1021 30.15 850 25.1 -19.2 -2.5 75 -22.5 -8.5
01:15 1021 30.15 850 25.1 -19.2 -2.6 75 -22.6 -8.6
01:20 1021 30.15 850 25.1 -19.2 -2.5 75 -22.5 -8.5
01:25 1021 30.15 850 25.1 -19.1 -2.4 75 -22.4 -8.4
01:30 1021 30.15 850 25.1 -18.9 -2 75 -22.3 -8.2
01:35 1021 30.15 850 25.1 -18.5 -1.4 74 -22.1 -7.9
01:40 1021 30.15 850 25.1 -18.6 -1.4 74 -22.2 -7.9
01:45 1021 30.15 850 25.1 -18.8 -1.9 74 -22.3 -8.2
01:50 1021 30.15 850 25.1 -18.9 -2 75 -22.4 -8.2
01:55 1021 30.15 850 25.1 -19 -2.2 74 -22.5 -8.5
02:00 1021 30.15 850 25.1 -19 -2.2 74 -22.6 -8.7
02:05 1021 30.15 850 25.1 -19.1 -2.5 75 -22.5 -8.6
02:10 1021 30.15 850 25.1 -19 -2.2 74 -22.5 -8.5
02:15 1021 30.15 850 25.1 -18.9 -2 74 -22.4 -8.4
02:20 1021 30.15 850 25.1 -18.8 -1.9 74 -22.4 -8.3
02:25 1021 30.15 850 25.1 -19.1 -2.3 75 -22.4 -8.3
02:30 1021 30.15 850 25.1 -19 -2.3 75 -22.5 -8.5
02:35 1021 30.15 851 25.13 -18.8 -1.9 74 -22.4 -8.2
02:40 1021 30.15 851 25.13 -18.7 -1.6 74 -22.3 -8.2
02:45 1021 30.15 851 25.13 -18.6 -1.4 73 -22.2 -8
02:50 1021 30.15 851 25.13 -18.8 -1.8 74 -22.3 -8.2
02:55 1021 30.15 851 25.13 -19.1 -2.3 75 -22.5 -8.5
03:00 1021 30.15 851 25.13 -18.9 -2 75 -22.3 -8.2
03:05 1022 30.18 851 25.13 -18.7 -1.7 74 -22.2 -8
03:10 1022 30.18 851 25.13 -18.7 -1.7 74 -22.2 -8
03:15 1022 30.18 851 25.13 -18.8 -1.9 74 -22.4 -8.3
03:20 1022 30.18 851 25.13 -18.7 -1.6 74 -22.2 -8
03:25 1022 30.18 851 25.13 -18.4 -1.2 73 -22.1 -7.8
03:30 1022 30.18 851 25.13 -18.4 -1.2 73 -22.2 -7.9
03:35 1022 30.18 851 25.13 -18.6 -1.4 73 -22.3 -8.1
03:40 1022 30.18 851 25.13 -18.8 -1.8 73 -22.4 -8.4
03:45 1022 30.18 851 25.13 -19.1 -2.4 75 -22.6 -8.6
03:50 1022 30.18 851 25.13 -19.3 -2.7 75 -22.7 -8.8
03:55 1022 30.18 851 25.13 -19.2 -2.5 75 -22.5 -8.6
04:00 1022 30.18 851 25.13 -19 -2.1 74 -22.4 -8.4
04:05 1022 30.18 851 25.13 -18.5 -1.2 74 -22 -7.7
04:10 1022 30.18 851 25.13 -18.1 -0.5 73 -21.8 -7.3
04:15 1022 30.18 851 25.13 -18.2 -0.7 74 -21.8 -7.2
04:20 1022 30.18 851 25.13 -18.6 -1.4 74 -22.1 -7.7
04:25 1022 30.18 851 25.13 -19 -2.2 77 -22.2 -7.9
04:30 1022 30.18 851 25.13 -19.1 -2.5 75 -22.5 -8.5
04:35 1022 30.18 851 25.13 -19.4 -3 76 -22.6 -8.7
04:40 1022 30.18 851 25.13 -19.3 -2.8 75 -22.7 -8.9
04:45 1022 30.18 851 25.13 -19.2 -2.6 75 -22.7 -8.8
04:50 1022 30.18 851 25.13 -19.4 -2.8 75 -22.7 -8.8
04:55 1022 30.18 851 25.13 -19.5 -3 75 -22.9 -9.2
05:00 1022 30.18 852 25.16 -19.6 -3.2 74 -23 -9.4
05:05 1022 30.18 852 25.16 -19.6 -3.2 74 -23 -9.4
05:10 1022 30.18 852 25.16 -19.4 -2.9 74 -22.9 -9.2
05:15 1022 30.18 852 25.16 -19.3 -2.7 74 -22.9 -9.1
05:20 1022 30.18 852 25.16 -19.3 -2.7 74 -22.8 -9.1
05:25 1023 30.21 852 25.16 -19.5 -3.1 75 -22.9 -9.3
05:30 1023 30.21 852 25.16 -19.7 -3.5 75 -23.1 -9.6
05:35 1023 30.21 852 25.16 -19.8 -3.7 76 -23.1 -9.5
05:40 1023 30.21 852 25.16 -19.6 -3.2 75 -22.9 -9.3
05:45 1023 30.21 852 25.16 -19.4 -3 75 -22.9 -9.2
05:50 1023 30.21 852 25.16 -19.5 -3.1 75 -22.9 -9.1
05:55 1023 30.21 852 25.16 -19.4 -2.8 74 -22.8 -9.1
06:00 1023 30.21 852 25.16 -19.2 -2.6 75 -22.7 -8.8
06:05 1023 30.21 852 25.16 -19 -2.1 74 -22.6 -8.6
06:10 1023 30.21 852 25.16 -18.9 -2.1 73 -22.6 -8.7
06:15 1023 30.21 852 25.16 -19.2 -2.5 74 -22.7 -8.9
06:20 1023 30.21 852 25.16 -19.6 -3.3 75 -23 -9.5
06:25 1023 30.21 852 25.16 -19.7 -3.5 75 -23 -9.5
06:30 1023 30.21 852 25.16 -20 -3.9 75 -23.3 -9.9
06:35 1023 30.21 852 25.16 -19.8 -3.7 75 -23.2 -9.7
06:40 1023 30.21 852 25.16 -19.6 -3.3 75 -23 -9.5
06:45 1023 30.21 852 25.16 -19.6 -3.3 75 -23 -9.5
06:50 1023 30.21 852 25.16 -19.6 -3.3 75 -23 -9.5
06:55 1023 30.21 852 25.16 -19.5 -3.2 75 -22.9 -9.2
07:00 1023 30.21 852 25.16 -19.3 -2.8 75 -22.7 -8.9
07:05 1023 30.21 852 25.16 -18.9 -2.1 74 -22.5 -8.6
07:10 1023 30.21 852 25.16 -18.6 -1.4 72 -22.4 -8.3
07:15 1023 30.21 852 25.16 -18.7 -1.7 73 -22.5 -8.4
07:20 1023 30.21 853 25.19 -19 -2.1 73 -22.6 -8.7
07:25 1023 30.21 853 25.19 -19 -2.2 74 -22.6 -8.6
07:30 1023 30.21 853 25.19 -19 -2.2 74 -22.5 -8.6
07:35 1023 30.21 853 25.19 -19 -2.2 75 -22.4 -8.4
07:40 1023 30.21 853 25.19 -18.8 -1.9 74 -22.4 -8.3
07:45 1023 30.21 853 25.19 -19 -2.2 74 -22.6 -8.6
07:50 1023 30.21 853 25.19 -19 -2.3 74 -22.6 -8.7
07:55 1023 30.21 853 25.19 -19.1 -2.3 75 -22.5 -8.5
08:00 1023 30.21 853 25.19 -18.9 -1.9 74 -22.4 -8.4
08:05 1023 30.21 853 25.19 -18.8 -1.8 75 -22.2 -8
08:10 1023 30.21 853 25.19 -18.8 -1.8 74 -22.3 -8.2
08:15 1024 30.24 853 25.19 -18.8 -1.8 74 -22.4 -8.3
08:20 1024 30.24 853 25.19 -18.8 -1.8 74 -22.3 -8.2
08:25 1024 30.24 853 25.19 -18.8 -1.8 74 -22.3 -8.2
08:30 1024 30.24 853 25.19 -18.6 -1.5 73 -22.3 -8.2
08:35 1024 30.24 853 25.19 -18.5 -1.3 73 -22.2 -8
08:40 1024 30.24 853 25.19 -18.5 -1.3 72 -22.4 -8.3
08:45 1024 30.24 853 25.19 -18.4 -1.1 71 -22.4 -8.3
08:50 1024 30.24 853 25.19 -18.7 -1.6 73 -22.4 -8.3
08:55 1024 30.24 853 25.19 -18.7 -1.6 73 -22.4 -8.3
09:00 1024 30.24 853 25.19 -18.7 -1.7 74 -22.3 -8.1
09:05 1024 30.24 853 25.19 -18.3 -1 72 -22.1 -7.8
09:10 1024 30.24 853 25.19 -17.7 0.2 70 -21.9 -7.4
09:15 1024 30.24 854 25.22 -17.2 1.1 68 -21.7 -7.1
09:20 1024 30.24 854 25.22 -17.3 0.9 69 -21.8 -7.2
09:25 1024 30.24 854 25.22 -17 1.3 68 -21.7 -7
09:30 1025 30.27 854 25.22 -16.7 1.9 65 -21.8 -7.2
09:35 1025 30.27 854 25.22 -16.5 2.2 67 -21.4 -6.5
09:40 1025 30.27 854 25.22 -15.9 3.4 62 -21.6 -6.9
09:45 1025 30.27 854 25.22 -15.8 3.5 63 -21.4 -6.5
09:50 1025 30.27 854 25.22 -16 3.2 64 -21.3 -6.3
09:55 1025 30.27 854 25.22 -15.3 4.5 62 -21 -5.8
10:00 1025 30.27 854 25.22 -15 5 62 -20.8 -5.4
10:05 1025 30.27 854 25.22 -14.3 6.3 59 -20.6 -5.1
10:10 1025 30.27 854 25.22 -14.3 6.2 59 -20.7 -5.2
10:15 1025 30.27 854 25.22 -14.1 6.5 59 -20.6 -5.1
10:20 1025 30.27 854 25.22 -13.8 7.1 58 -20.5 -4.8
10:25 1025 30.27 854 25.22 -13.8 7.2 59 -20.2 -4.4
10:30 1025 30.27 854 25.22 -13.3 8 56 -20.3 -4.5
10:35 1025 30.27 854 25.22 -12.7 9.1 54 -20.2 -4.4
10:40 1025 30.27 854 25.22 -12.7 9.2 54 -20.2 -4.3
10:45 1025 30.27 854 25.22 -12.9 8.7 55 -20.3 -4.5
10:50 1025 30.27 854 25.22 -13.1 8.4 56 -20.2 -4.3
10:55 1025 30.27 854 25.22 -12.3 9.9 52 -20.2 -4.4
11:00 1025 30.27 854 25.22 -11.4 11.5 49 -20 -4
11:05 1025 30.27 854 25.22 -11.4 11.6 50 -19.8 -3.7
11:10 1025 30.27 854 25.22 -11.7 11 51 -19.9 -3.8
11:15 1025 30.27 854 25.22 -11.8 10.7 52 -19.7 -3.5
11:20 1025 30.27 854 25.22 -11.7 11 51 -20 -4
11:25 1025 30.27 854 25.22 -11.5 11.3 50 -20.1 -4.2
11:30 1025 30.27 854 25.22 -11.4 11.4 50 -19.9 -3.8
11:35 1025 30.27 854 25.22 -11.4 11.6 50 -19.9 -3.8
11:40 1025 30.27 854 25.22 -11.4 11.6 50 -19.9 -3.8
11:45 1025 30.27 854 25.22 -11.4 11.4 50 -19.8 -3.7
11:50 1025 30.27 854 25.22 -11.6 11.1 51 -19.9 -3.8
11:55 1025 30.27 854 25.22 -11.1 12.1 50 -19.5 -3.2
12:00 1025 30.27 854 25.22 -11.1 12.1 49 -19.8 -3.6
12:05 1025 30.27 854 25.22 -11.4 11.5 48 -20.3 -4.5
12:10 1025 30.27 854 25.22 -10.8 12.5 48 -19.9 -3.8
12:15 1025 30.27 854 25.22 -10.6 12.9 47 -19.9 -3.8
12:20 1025 30.27 854 25.22 -10.6 12.9 46 -20 -4
12:25 1025 30.27 854 25.22 -11.1 12 50 -19.7 -3.4
12:30 1025 30.27 854 25.22 -11 12.1 48 -20 -4
12:35 1025 30.27 854 25.22 -11.2 11.9 48 -20.2 -4.4
12:40 1025 30.27 854 25.22 -11.8 10.8 51 -20 -4
12:45 1025 30.27 854 25.22 -11.5 11.3 50 -20 -4
12:50 1025 30.27 854 25.22 -11.8 10.8 51 -20 -3.9
12:55 1025 30.27 854 25.22 -11.6 11.1 51 -19.9 -3.8
13:00 1025 30.27 854 25.22 -11.4 11.4 49 -20.2 -4.4
13:05 1025 30.27 854 25.22 -11.3 11.7 49 -19.9 -3.9
13:10 1025 30.27 854 25.22 -11.2 11.8 50 -19.7 -3.5
13:15 1025 30.27 854 25.22 -11.1 12.1 49 -19.8 -3.6
13:20 1025 30.27 854 25.22 -11.1 12.1 49 -19.8 -3.6
13:25 1025 30.27 854 25.22 -11 12.2 50 -19.6 -3.3
13:30 1025 30.27 854 25.22 -11.1 12 50 -19.6 -3.2
13:35 1025 30.27 854 25.22 -11.3 11.6 51 -19.6 -3.3
13:40 1025 30.27 854 25.22 -11.3 11.6 52 -19.3 -2.8
13:45 1025 30.27 854 25.22 -11.4 11.5 52 -19.5 -3
13:50 1025 30.27 854 25.22 -11.7 10.9 52 -19.7 -3.5
13:55 1025 30.27 854 25.22 -12 10.4 52 -19.9 -3.8
14:00 1025 30.27 854 25.22 -12.5 9.6 55 -19.8 -3.7
14:05 1025 30.27 854 25.22 -12.9 8.7 57 -19.8 -3.7
14:10 1025 30.27 854 25.22 -12.8 9 57 -19.7 -3.4
14:15 1025 30.27 854 25.22 -12.3 9.8 56 -19.4 -2.9
14:20 1025 30.27 854 25.22 -11.8 10.7 56 -19 -2.3
14:25 1025 30.27 854 25.22 -11.6 11.1 54 -19.1 -2.4
14:30 1025 30.27 854 25.22 -11.5 11.3 56 -18.6 -1.6
14:35 1025 30.27 854 25.22 -11.1 12 54 -18.8 -1.8
14:40 1025 30.27 854 25.22 -11.2 11.9 55 -18.6 -1.5
14:45 1024 30.24 854 25.22 -10.9 12.5 54 -18.5 -1.3
14:50 1024 30.24 854 25.22 -10.9 12.4 54 -18.6 -1.5
14:55 1024 30.24 854 25.22 -10.6 13 52 -18.6 -1.4
15:00 1024 30.24 854 25.22 -11 12.2 53 -18.8 -1.8
15:05 1025 30.27 854 25.22 -11.4 11.4 56 -18.7 -1.6
15:10 1025 30.27 854 25.22 -11.4 11.5 55 -18.8 -1.9
15:15 1025 30.27 854 25.22 -11.5 11.3 56 -18.6 -1.6
15:20 1025 30.27 854 25.22 -11.4 11.4 55 -18.7 -1.7
15:25 1025 30.27 854 25.22 -11.2 11.9 55 -18.7 -1.6
15:30 1025 30.27 854 25.22 -10.7 12.8 53 -18.6 -1.4
15:35 1025 30.27 854 25.22 -10.6 12.9 53 -18.4 -1.2
15:40 1025 30.27 854 25.22 -10.6 12.9 53 -18.5 -1.4
15:45 1025 30.27 854 25.22 -10.7 12.7 53 -18.6 -1.5
15:50 1025 30.27 854 25.22 -10.7 12.8 53 -18.4 -1.2
15:55 1025 30.27 854 25.22 -10.7 12.7 54 -18.4 -1.1
16:00 1025 30.27 854 25.22 -10.7 12.8 54 -18.3 -1
16:05 1025 30.27 854 25.22 -10.3 13.5 53 -18.2 -0.8
16:10 1025 30.27 854 25.22 -10.4 13.3 54 -18.1 -0.6
16:15 1025 30.27 854 25.22 -10.8 12.5 55 -18.3 -1
16:20 1025 30.27 854 25.22 -11.2 11.8 56 -18.3 -1
16:25 1025 30.27 854 25.22 -11.1 12 56 -18.3 -0.9
16:30 1025 30.27 854 25.22 -10.8 12.5 55 -18.1 -0.6
16:35 1025 30.27 854 25.22 -10.7 12.8 54 -18.3 -0.9
16:40 1025 30.27 854 25.22 -10.9 12.5 55 -18.2 -0.8
16:45 1025 30.27 854 25.22 -11 12.3 55 -18.3 -1
16:50 1025 30.27 854 25.22 -11.2 11.8 56 -18.3 -0.9
16:55 1025 30.27 854 25.22 -11.8 10.7 60 -18.1 -0.6
17:00 1025 30.27 854 25.22 -12.3 9.9 61 -18.3 -0.9
17:05 1025 30.27 854 25.22 -12.9 8.7 65 -18.2 -0.7
17:10 1025 30.27 854 25.22 -13.2 8.3 66 -18.2 -0.8
17:15 1025 30.27 854 25.22 -13.4 8 68 -18 -0.4
17:20 1025 30.27 854 25.22 -13.3 8.1 69 -17.8 -0.1
17:25 1025 30.27 854 25.22 -13.5 7.7 70 -17.9 -0.3
17:30 1025 30.27 854 25.22 -13.8 7.2 71 -18.1 -0.5
17:35 1025 30.27 854 25.22 -14.6 5.6 74 -18.4 -1.1
17:40 1025 30.27 854 25.22 -14.8 5.3 75 -18.4 -1.1
17:45 1025 30.27 854 25.22 -14.7 5.5 75 -18.3 -0.9
17:50 1025 30.27 854 25.22 -14.4 6 73 -18.3 -1
17:55 1025 30.27 854 25.22 -14.8 5.3 74 -18.5 -1.2
18:00 1025 30.27 854 25.22 -15.4 4.3 77 -18.6 -1.4
18:05 1025 30.27 854 25.22 -15.3 4.6 76 -18.6 -1.5
18:10 1025 30.27 854 25.22 -15.3 4.4 78 -18.4 -1.2
18:15 1025 30.27 854 25.22 -15.4 4.4 78 -18.4 -1.2
18:20 1025 30.27 854 25.22 -15.4 4.3 77 -18.6 -1.5
18:25 1025 30.27 854 25.22 -15.5 4.2 76 -18.8 -1.8
18:30 1025 30.27 854 25.22 -16 3.2 78 -19 -2.1
18:35 1025 30.27 854 25.22 -16 3.3 76 -19.2 -2.6
18:40 1025 30.27 854 25.22 -16 3.3 77 -19.1 -2.3
18:45 1025 30.27 854 25.22 -15.7 3.8 76 -19 -2.2
18:50 1025 30.27 854 25.22 -15.2 4.6 75 -18.8 -1.8
18:55 1025 30.27 854 25.22 -15.4 4.4 75 -18.9 -2
19:00 1025 30.27 854 25.22 -15.4 4.2 75 -18.9 -2
19:05 1025 30.27 855 25.25 -15.4 4.3 79 -18.2 -0.7
19:10 1025 30.27 854 25.22 -15.6 4 78 -18.6 -1.5
19:15 1025 30.27 854 25.22 -15.9 3.4 79 -18.7 -1.7
19:20 1025 30.27 854 25.22 -15.9 3.3 76 -19.3 -2.8
19:25 1025 30.27 854 25.22 -15.9 3.4 77 -19.1 -2.4
19:30 1025 30.27 854 25.22 -15.8 3.6 76 -19.2 -2.5
19:35 1025 30.27 855 25.25 -15.7 3.8 75 -19.2 -2.5
19:40 1025 30.27 855 25.25 -15.7 3.7 75 -19.2 -2.5
19:45 1025 30.27 855 25.25 -15.7 3.7 74 -19.4 -2.9
19:50 1025 30.27 855 25.25 -15.6 4 73 -19.4 -2.9
19:55 1025 30.27 855 25.25 -15.4 4.2 75 -18.9 -2
20:00 1025 30.27 855 25.25 -15.4 4.2 74 -19.1 -2.5
20:05 1025 30.27 855 25.25 -15.3 4.5 75 -18.7 -1.7
20:10 1025 30.27 855 25.25 -15.3 4.4 72 -19.2 -2.6
20:15 1025 30.27 855 25.25 -15.4 4.4 78 -18.4 -1.1
20:20 1025 30.27 854 25.22 -15.2 4.6 74 -18.8 -1.9
20:25 1025 30.27 855 25.25 -15.3 4.4 73 -19.1 -2.4
20:30 1025 30.27 855 25.25 -15.1 4.9 74 -18.7 -1.6
20:35 1025 30.27 855 25.25 -14.8 5.3 74 -18.6 -1.4
20:40 1025 30.27 854 25.22 -15.1 4.8 74 -18.7 -1.7
20:45 1025 30.27 855 25.25 -15.4 4.4 73 -19.1 -2.4
20:50 1025 30.27 855 25.25 -15.6 3.8 74 -19.2 -2.6
20:55 1025 30.27 855 25.25 -15.7 3.8 75 -19.2 -2.6
21:00 1025 30.27 855 25.25 -15.5 4.1 74 -19.2 -2.6
21:05 1025 30.27 855 25.25 -15.3 4.5 74 -18.9 -2.1
21:10 1025 30.27 855 25.25 -15.1 4.9 76 -18.4 -1
21:15 1025 30.27 855 25.25 -14.9 5.2 73 -18.7 -1.7
21:20 1026 30.3 855 25.25 -14.8 5.4 72 -18.8 -1.9
21:25 1026 30.3 855 25.25 -15 5 72 -18.9 -2
21:30 1026 30.3 855 25.25 -15.3 4.4 72 -19.2 -2.6
21:35 1026 30.3 855 25.25 -15.1 4.9 73 -18.9 -2
21:40 1026 30.3 855 25.25 -15.4 4.4 76 -18.7 -1.7
21:45 1026 30.3 855 25.25 -15.4 4.4 75 -18.9 -2
21:50 1026 30.3 855 25.25 -15.4 4.2 73 -19.3 -2.7
21:55 1026 30.3 855 25.25 -15.6 4 73 -19.4 -3
22:00 1026 30.3 855 25.25 -15.8 3.7 73 -19.5 -3.1
22:05 1026 30.3 855 25.25 -15.8 3.5 73 -19.6 -3.2
22:10 1026 30.3 855 25.25 -15.8 3.6 73 -19.5 -3.2
22:15 1026 30.3 855 25.25 -15.5 4.1 73 -19.3 -2.8
22:20 1026 30.3 855 25.25 -15.5 4.2 72 -19.4 -2.8
22:25 1026 30.3 855 25.25 -15.4 4.3 72 -19.4 -2.9
22:30 1026 30.3 855 25.25 -15.5 4 73 -19.3 -2.8
22:35 1026 30.3 855 25.25 -15.6 3.9 73 -19.4 -2.8
22:40 1026 30.3 855 25.25 -15.7 3.8 74 -19.4 -2.9
22:45 1026 30.3 855 25.25 -15.7 3.8 74 -19.4 -2.9
22:50 1026 30.3 855 25.25 -15.7 3.7 74 -19.4 -2.9
22:55 1026 30.3 855 25.25 -15.8 3.5 74 -19.5 -3.1
23:00 1026 30.3 855 25.25 -15.7 3.8 73 -19.5 -3.1
23:05 1026 30.3 855 25.25 -15.6 3.9 73 -19.5 -3.1
23:10 1026 30.3 855 25.25 -15.7 3.8 73 -19.5 -3.1
23:15 1026 30.3 855 25.25 -15.4 4.2 72 -19.4 -2.8
23:20 1026 30.3 855 25.25 -15.4 4.2 74 -19.1 -2.3
23:25 1026 30.3 855 25.25 -15.3 4.4 72 -19.3 -2.8
23:30 1026 30.3 855 25.25 -15.5 4.2 73 -19.3 -2.8
23:35 1026 30.3 855 25.25 -15.6 4 72 -19.5 -3.1
23:40 1026 30.3 855 25.25 -15.6 3.9 71 -19.7 -3.5
23:45 1026 30.3 855 25.25 -15.6 4 71 -19.6 -3.3
23:50 1026 30.3 855 25.25 -15.4 4.3 75 -19 -2.1
23:55 1026 30.3 855 25.25 -15 5.1 71 -19.1 -2.4
24:00 1026 30.3 855 25.25 -15.1 4.8 75 -18.6 -1.5